Time;durP1;ratioP1;P1;durP2;ratioP2;P2;SDS_P1;SDS_P2;PMS_P1;PMS_P2;Temp;Humidity;BMP_temperature;BMP_pressure;BME280_temperature;BME280_humidity;BME280_pressure;Samples;Min_cycle;Max_cycle;Signal;HPM_P1;HPM_P2
2023/07/25 00:01:09;;;;;;;12.48;6.60;;;11.50;99.90;;;;;;4936657;28;20439;-93
2023/07/25 00:03:35;;;;;;;11.57;5.97;;;12.10;99.90;;;;;;4935147;28;20412;-93
2023/07/25 00:06:02;;;;;;;9.57;5.40;;;12.60;99.90;;;;;;4937116;28;20911;-92
2023/07/25 00:08:28;;;;;;;10.77;5.90;;;11.90;99.90;;;;;;4935502;28;20436;-93
2023/07/25 00:10:53;;;;;;;11.87;5.93;;;12.20;99.90;;;;;;4936931;28;20412;-93
2023/07/25 00:13:19;;;;;;;11.82;5.63;;;12.10;99.90;;;;;;4935177;28;20411;-92
2023/07/25 00:15:45;;;;;;;13.67;5.00;;;12.40;99.90;;;;;;4936049;28;20447;-92
2023/07/25 00:18:10;;;;;;;9.07;4.90;;;11.80;99.90;;;;;;4936249;28;20450;-92
2023/07/25 00:20:36;;;;;;;13.93;5.35;;;12.00;99.90;;;;;;4935452;28;20499;-92
2023/07/25 00:23:02;;;;;;;11.57;5.17;;;12.10;99.90;;;;;;4936315;28;20781;-90
2023/07/25 00:25:27;;;;;;;9.82;4.45;;;12.30;99.90;;;;;;4934979;28;20482;-92
2023/07/25 00:27:53;;;;;;;8.37;4.67;;;12.60;99.90;;;;;;4936404;28;20420;-92
2023/07/25 00:30:19;;;;;;;9.93;4.93;;;12.30;99.90;;;;;;4934805;28;20518;-90
2023/07/25 00:32:44;;;;;;;10.50;4.50;;;12.10;99.90;;;;;;4936374;28;20420;-93
2023/07/25 00:35:10;;;;;;;9.80;4.50;;;12.20;99.90;;;;;;4935657;28;20924;-92
2023/07/25 00:37:36;;;;;;;10.38;4.30;;;12.20;99.90;;;;;;4934449;28;20502;-92
2023/07/25 00:40:01;;;;;;;9.13;4.47;;;12.20;99.90;;;;;;4935692;28;20405;-93
2023/07/25 00:42:27;;;;;;;11.43;5.20;;;12.30;99.90;;;;;;4934536;28;20524;-94
2023/07/25 00:44:53;;;;;;;10.52;4.97;;;12.30;99.90;;;;;;4936306;28;20456;-93
2023/07/25 00:47:21;;;;;;;7.53;3.97;;;12.60;99.90;;;;;;4934153;28;20408;-93
2023/07/25 00:49:47;;;;;;;10.23;4.53;;;12.60;99.90;;;;;;4936042;28;20417;-93
2023/07/25 00:52:13;;;;;;;10.00;4.20;;;12.30;99.90;;;;;;4934609;28;20408;-93
2023/07/25 00:54:44;;;;;;;11.18;4.07;;;12.70;99.90;;;;;;4935334;28;20864;-93
2023/07/25 00:57:10;;;;;;;9.10;3.80;;;12.70;99.90;;;;;;4935677;28;20836;-93
2023/07/25 00:59:35;;;;;;;9.13;3.92;;;12.70;99.90;;;;;;4934254;28;20440;-93
2023/07/25 01:02:02;;;;;;;10.57;4.33;;;12.60;99.90;;;;;;4935597;28;20532;-94
2023/07/25 01:04:27;;;;;;;10.93;3.85;;;12.60;99.90;;;;;;4933975;28;20938;-93
2023/07/25 01:06:53;;;;;;;11.87;4.40;;;12.80;99.90;;;;;;4935866;28;20408;-94
2023/07/25 01:09:40;;;;;;;9.55;3.90;;;12.70;99.90;;;;;;4934391;28;20412;-92
2023/07/25 01:12:09;;;;;;;9.45;3.80;;;12.60;99.90;;;;;;4934856;28;20468;-92
2023/07/25 01:14:35;;;;;;;12.85;4.00;;;12.40;99.90;;;;;;4935274;28;20451;-92
2023/07/25 01:17:18;;;;;;;10.27;3.75;;;12.80;99.90;;;;;;4934047;28;20404;-93
2023/07/25 01:19:46;;;;;;;11.98;4.22;;;12.60;99.90;;;;;;4935028;28;20503;-93
2023/07/25 01:22:12;;;;;;;9.43;3.63;;;12.70;99.90;;;;;;4932757;28;20973;-93
2023/07/25 01:24:44;;;;;;;9.60;3.35;;;12.30;99.90;;;;;;4935090;28;20903;-92
2023/07/25 01:27:11;;;;;;;10.83;4.00;;;12.60;99.90;;;;;;4934209;28;20831;-92
2023/07/25 01:29:36;;;;;;;12.38;4.72;;;12.50;99.90;;;;;;4934904;28;20474;-93
2023/07/25 01:32:02;;;;;;;12.17;4.67;;;12.60;99.90;;;;;;4935628;28;20911;-92
2023/07/25 01:34:28;;;;;;;12.03;5.20;;;12.40;99.90;;;;;;4933843;28;20408;-91
2023/07/25 01:36:54;;;;;;;9.18;4.10;;;12.40;99.90;;;;;;4935566;28;20490;-93
2023/07/25 01:39:20;;;;;;;11.60;4.30;;;12.70;99.90;;;;;;4933455;28;21309;-92
2023/07/25 01:41:45;;;;;;;10.20;4.73;;;12.50;99.90;;;;;;4935458;28;20509;-93
2023/07/25 01:44:11;;;;;;;10.75;4.80;;;12.50;99.90;;;;;;4934829;28;20431;-92
2023/07/25 01:46:39;;;;;;;11.57;4.93;;;12.50;99.90;;;;;;4935029;28;20404;-92
2023/07/25 01:49:05;;;;;;;10.15;4.68;;;12.70;99.90;;;;;;4938100;28;20420;-93
2023/07/25 01:51:31;;;;;;;11.27;4.50;;;12.50;99.90;;;;;;4937628;28;20412;-93
2023/07/25 01:53:58;;;;;;;12.70;5.18;;;12.00;99.90;;;;;;4939189;28;20420;-93
2023/07/25 01:56:25;;;;;;;12.63;4.95;;;12.50;99.90;;;;;;4937196;28;20502;-93
2023/07/25 01:58:51;;;;;;;13.75;4.75;;;12.50;99.90;;;;;;4939430;28;20409;-94
2023/07/25 02:01:16;;;;;;;10.43;4.45;;;12.70;99.90;;;;;;4937463;28;20451;-93
2023/07/25 02:03:42;;;;;;;13.83;4.73;;;12.90;99.90;;;;;;4938631;28;21105;-94
2023/07/25 02:06:08;;;;;;;13.43;5.38;;;12.80;99.90;;;;;;4937935;28;20416;-93
2023/07/25 02:08:34;;;;;;;7.68;4.30;;;12.50;99.90;;;;;;4937708;28;20843;-94
2023/07/25 02:11:00;;;;;;;11.75;5.45;;;13.00;99.90;;;;;;4938609;28;20499;-93
2023/07/25 02:13:26;;;;;;;10.48;4.50;;;12.70;99.90;;;;;;4936849;28;20539;-93
2023/07/25 02:15:51;;;;;;;10.73;5.60;;;12.20;99.90;;;;;;4938912;28;20765;-93
2023/07/25 02:18:17;;;;;;;11.88;4.90;;;12.70;99.90;;;;;;4936689;28;20422;-93
2023/07/25 02:20:43;;;;;;;11.70;5.60;;;12.90;99.90;;;;;;4938604;28;20916;-94
2023/07/25 02:23:08;;;;;;;12.17;4.70;;;13.10;99.90;;;;;;4937508;28;20436;-93
2023/07/25 02:25:34;;;;;;;12.25;4.55;;;12.80;99.90;;;;;;4937739;28;20533;-94
2023/07/25 02:28:00;;;;;;;14.70;5.35;;;13.10;99.90;;;;;;4937765;28;20412;-93
2023/07/25 02:30:26;;;;;;;10.47;5.50;;;13.20;99.90;;;;;;4936620;28;20416;-92
2023/07/25 02:32:51;;;;;;;13.75;5.88;;;13.00;99.90;;;;;;4938291;28;20791;-93
2023/07/25 02:35:17;;;;;;;10.40;4.93;;;13.30;99.90;;;;;;4936159;28;20415;-92
2023/07/25 02:37:43;;;;;;;12.32;4.18;;;13.10;99.90;;;;;;4938179;28;20417;-93
2023/07/25 02:40:09;;;;;;;11.73;4.15;;;13.30;99.90;;;;;;4936189;28;20427;-94
2023/07/25 02:42:35;;;;;;;12.53;3.30;;;13.10;99.90;;;;;;4937627;28;20794;-94
2023/07/25 02:45:01;;;;;;;9.03;3.17;;;13.20;99.90;;;;;;4934330;28;20958;-94
2023/07/25 02:47:26;;;;;;;8.43;2.28;;;13.20;99.90;;;;;;4951481;28;20813;-93
2023/07/25 02:49:52;;;;;;;9.02;1.95;;;13.00;99.90;;;;;;4956922;28;20481;-93
2023/07/25 02:52:18;;;;;;;9.83;2.10;;;13.30;99.90;;;;;;4955292;28;20426;-92
2023/07/25 02:54:44;;;;;;;11.82;2.47;;;13.40;99.90;;;;;;4956769;28;20459;-92
2023/07/25 02:57:10;;;;;;;9.10;2.10;;;13.80;99.90;;;;;;4955082;28;20450;-93
2023/07/25 02:59:35;;;;;;;7.38;1.90;;;13.40;99.90;;;;;;4956265;28;20457;-93
2023/07/25 03:02:01;;;;;;;9.23;2.47;;;13.70;99.90;;;;;;4955675;28;20441;-93
2023/07/25 03:04:27;;;;;;;8.73;2.57;;;13.30;99.90;;;;;;4956481;28;20406;-93
2023/07/25 03:06:53;;;;;;;9.80;2.40;;;13.50;99.90;;;;;;4955938;28;20422;-93
2023/07/25 03:09:19;;;;;;;10.30;2.20;;;13.00;99.90;;;;;;4954914;28;20837;-94
2023/07/25 03:11:44;;;;;;;8.20;2.20;;;13.10;99.90;;;;;;4956625;28;20402;-93
2023/07/25 03:14:14;;;;;;;8.05;2.25;;;13.20;99.90;;;;;;4955070;28;20984;-94
2023/07/25 03:16:40;;;;;;;7.43;2.40;;;13.10;99.90;;;;;;4957000;28;20925;-93
2023/07/25 03:19:06;;;;;;;9.13;2.22;;;12.70;99.90;;;;;;4955070;28;20448;-92
2023/07/25 03:21:31;;;;;;;8.73;1.87;;;12.70;99.90;;;;;;4955988;28;20446;-92
2023/07/25 03:23:57;;;;;;;9.27;2.53;;;13.00;99.90;;;;;;4955645;28;20789;-93
2023/07/25 03:26:23;;;;;;;7.17;2.40;;;12.50;99.90;;;;;;4955477;28;20489;-93
2023/07/25 03:28:48;;;;;;;7.40;2.10;;;13.00;99.90;;;;;;4956551;28;20410;-92
2023/07/25 03:31:14;;;;;;;6.93;2.63;;;12.60;99.90;;;;;;4954713;28;20511;-93
2023/07/25 03:33:40;;;;;;;9.50;2.70;;;12.50;99.90;;;;;;4956913;28;20411;-92
2023/07/25 03:36:07;;;;;;;6.53;2.35;;;12.20;99.90;;;;;;4954886;28;20426;-93
2023/07/25 03:38:33;;;;;;;10.63;2.78;;;12.70;99.90;;;;;;4956032;28;20415;-92
2023/07/25 03:40:58;;;;;;;9.32;2.67;;;12.20;99.90;;;;;;4955107;28;20485;-93
2023/07/25 03:43:24;;;;;;;8.80;2.73;;;12.30;99.90;;;;;;4955560;28;20406;-93
2023/07/25 03:45:50;;;;;;;10.13;3.00;;;12.30;99.90;;;;;;4956137;28;20465;-93
2023/07/25 03:48:16;;;;;;;5.93;2.40;;;12.00;99.90;;;;;;4954730;28;20410;-93
2023/07/25 03:50:41;;;;;;;10.03;2.90;;;12.00;99.90;;;;;;4956313;28;20446;-93
2023/07/25 03:53:07;;;;;;;7.03;2.50;;;12.00;99.90;;;;;;4954307;28;20426;-93
2023/07/25 03:55:33;;;;;;;9.65;2.80;;;12.10;99.90;;;;;;4956026;28;20478;-93
2023/07/25 03:57:58;;;;;;;9.60;3.30;;;11.90;99.90;;;;;;4954590;28;20480;-92
2023/07/25 04:00:24;;;;;;;6.53;3.00;;;12.00;99.90;;;;;;4955642;28;20522;-93
2023/07/25 04:02:50;;;;;;;10.13;3.07;;;11.90;99.90;;;;;;4955108;28;20434;-92
2023/07/25 04:05:15;;;;;;;8.48;3.10;;;12.00;99.90;;;;;;4954806;28;20495;-93
2023/07/25 04:07:41;;;;;;;7.07;2.40;;;11.70;99.90;;;;;;4955354;28;20754;-93
2023/07/25 04:10:07;;;;;;;7.07;3.10;;;11.90;99.90;;;;;;4954399;28;20426;-91
2023/07/25 04:12:33;;;;;;;10.32;3.80;;;11.70;99.90;;;;;;4955223;28;20474;-94
2023/07/25 04:14:58;;;;;;;12.15;4.43;;;12.00;99.90;;;;;;4954684;28;20486;-94
2023/07/25 04:17:24;;;;;;;9.93;4.30;;;12.00;99.90;;;;;;4955516;28;20506;-93
2023/07/25 04:19:50;;;;;;;8.48;3.75;;;12.10;99.90;;;;;;4954821;28;20406;-92
2023/07/25 04:22:15;;;;;;;12.45;4.60;;;11.60;99.90;;;;;;4954530;28;20438;-93
2023/07/25 04:24:41;;;;;;;9.37;3.83;;;12.00;99.90;;;;;;4955127;28;20402;-91
2023/07/25 04:27:07;;;;;;;8.95;3.90;;;12.20;99.90;;;;;;4954015;28;20468;-93
2023/07/25 04:29:32;;;;;;;10.97;3.87;;;12.00;99.90;;;;;;4955210;28;20410;-92
2023/07/25 04:31:58;;;;;;;8.40;3.70;;;12.20;99.90;;;;;;4953358;28;20410;-92
2023/07/25 04:34:24;;;;;;;9.33;3.57;;;12.40;99.90;;;;;;4955250;28;20418;-92
2023/07/25 04:36:49;;;;;;;10.23;4.03;;;12.20;99.90;;;;;;4953664;28;20438;-92
2023/07/25 04:39:15;;;;;;;11.27;4.30;;;12.30;99.90;;;;;;4955107;28;20430;-94
2023/07/25 04:41:41;;;;;;;11.55;4.95;;;12.60;99.90;;;;;;4953894;28;20485;-93
2023/07/25 04:44:07;;;;;;;7.57;3.70;;;12.50;99.90;;;;;;4953580;28;20407;-93
2023/07/25 04:46:32;;;;;;;10.07;4.20;;;12.60;99.90;;;;;;4954528;28;20406;-92
2023/07/25 04:48:58;;;;;;;10.27;4.07;;;12.30;99.90;;;;;;4953460;28;20458;-92
2023/07/25 04:51:24;;;;;;;8.23;3.60;;;12.50;99.90;;;;;;4955373;28;20454;-93
2023/07/25 04:53:49;;;;;;;9.00;4.15;;;13.00;99.90;;;;;;4953567;28;20445;-93
2023/07/25 04:56:15;;;;;;;9.80;3.80;;;12.70;99.90;;;;;;4954373;28;20992;-93
2023/07/25 04:58:41;;;;;;;10.50;3.85;;;12.60;99.90;;;;;;4952835;28;20503;-94
2023/07/25 05:01:07;;;;;;;8.77;3.20;;;12.70;99.90;;;;;;4953646;28;20421;-93
2023/07/25 05:03:33;;;;;;;10.07;3.15;;;13.00;99.90;;;;;;4954142;28;20771;-93
2023/07/25 05:05:59;;;;;;;9.77;2.50;;;13.10;99.90;;;;;;4953200;28;20407;-94
2023/07/25 05:08:25;;;;;;;7.35;1.80;;;13.20;99.90;;;;;;4953812;28;20798;-93
2023/07/25 05:10:52;;;;;;;6.13;1.37;;;13.60;99.90;;;;;;4952753;28;20410;-93
2023/07/25 05:13:28;;;;;;;7.60;1.00;;;13.50;99.90;;;;;;4954790;28;21065;-95
2023/07/25 05:15:53;;;;;;;7.35;1.13;;;13.50;99.90;;;;;;4928121;28;20467;-95
2023/07/25 05:18:19;;;;;;;8.97;1.97;;;13.60;99.90;;;;;;4922976;29;20924;-93
2023/07/25 05:20:45;;;;;;;7.82;1.20;;;13.80;99.90;;;;;;4915394;29;20496;-94
2023/07/25 05:23:13;;;;;;;7.43;1.20;;;14.10;99.90;;;;;;4915745;29;20453;-93
2023/07/25 05:25:39;;;;;;;5.18;1.00;;;14.20;99.90;;;;;;4919287;29;20426;-94
2023/07/25 05:28:05;;;;;;;7.57;0.98;;;14.10;99.90;;;;;;4917936;29;20428;-93
2023/07/25 05:30:31;;;;;;;6.67;0.70;;;14.20;99.90;;;;;;4919781;29;20409;-94
2023/07/25 05:32:57;;;;;;;5.82;0.95;;;14.30;99.90;;;;;;4918226;29;20579;-94
2023/07/25 05:35:26;;;;;;;7.72;1.10;;;14.30;99.90;;;;;;4919705;29;20417;-93
2023/07/25 05:37:52;;;;;;;5.22;0.90;;;14.50;99.90;;;;;;4917441;29;20434;-94
2023/07/25 05:40:17;;;;;;;6.95;0.80;;;14.60;99.90;;;;;;4918304;29;20414;-93
2023/07/25 05:42:47;;;;;;;7.57;1.20;;;15.10;99.90;;;;;;4923449;28;20435;-94
2023/07/25 05:45:31;;;;;;;5.40;0.60;;;14.80;99.90;;;;;;4940741;28;20466;-94
2023/07/25 05:48:11;;;;;;;6.35;1.08;;;15.10;99.90;;;;;;4938779;28;20454;-95
2023/07/25 05:50:37;;;;;;;5.95;0.75;;;14.80;99.90;;;;;;4937440;28;20935;-93
2023/07/25 05:53:03;;;;;;;5.30;0.70;;;14.80;99.90;;;;;;4938552;28;20454;-94
2023/07/25 05:55:31;;;;;;;6.63;0.90;;;15.00;99.90;;;;;;4937320;28;20408;-94
2023/07/25 05:58:21;;;;;;;7.22;0.80;;;14.90;99.90;;;;;;4940621;28;20416;-93
2023/07/25 06:00:49;;;;;;;4.20;0.70;;;15.00;99.90;;;;;;4955095;28;20420;-93
2023/07/25 06:03:15;;;;;;;3.80;0.70;;;15.50;99.90;;;;;;4939181;28;20432;-93
2023/07/25 06:05:41;;;;;;;3.80;0.30;;;15.70;99.90;;;;;;4937793;28;20547;-94
2023/07/25 06:08:08;;;;;;;5.37;0.63;;;15.30;99.90;;;;;;4937462;28;20428;-93
2023/07/25 06:10:38;;;;;;;3.50;0.30;;;15.50;99.90;;;;;;4937287;28;20787;-93
2023/07/25 06:13:04;;;;;;;4.17;0.30;;;15.60;99.90;;;;;;4937696;28;20505;-93
2023/07/25 06:15:36;;;;;;;3.40;0.43;;;15.50;99.90;;;;;;4938317;28;20420;-93
2023/07/25 06:18:02;;;;;;;3.95;0.30;;;15.70;99.90;;;;;;4937455;28;20501;-93
2023/07/25 06:20:39;;;;;;;;;;;;;;;;;;;;;
2023/07/25 06:23:27;;;;;;;;;;;;;;;;;;;;;
2023/07/25 06:26:03;;;;;;;3.63;0.25;;;16.20;99.90;;;;;;4959570;28;20431;-94
2023/07/25 06:28:38;;;;;;;4.85;0.40;;;16.40;99.90;;;;;;4943044;28;20445;-94
2023/07/25 06:31:12;;;;;;;3.70;0.30;;;16.20;99.90;;;;;;4941574;28;20426;-94
2023/07/25 06:33:38;;;;;;;4.35;0.30;;;16.70;99.90;;;;;;4938711;28;20780;-93
2023/07/25 06:36:27;;;;;;;3.78;0.30;;;16.20;99.90;;;;;;4944469;28;20423;-94
2023/07/25 06:38:53;;;;;;;2.00;0.20;;;16.60;99.90;;;;;;4936218;28;20452;-93
2023/07/25 06:41:25;;;;;;;5.30;0.30;;;16.30;99.90;;;;;;4938764;28;20475;-94
2023/07/25 06:43:58;;;;;;;3.65;0.30;;;16.70;99.90;;;;;;4940419;28;20432;-93
2023/07/25 06:46:26;;;;;;;2.72;0.40;;;17.10;99.90;;;;;;4939055;28;20420;-93
2023/07/25 06:48:52;;;;;;;4.43;0.30;;;16.70;99.90;;;;;;4939097;28;20404;-92
2023/07/25 06:51:21;;;;;;;4.20;0.38;;;16.80;99.90;;;;;;4929757;28;20854;-93
2023/07/25 06:53:49;;;;;;;2.47;0.30;;;17.00;99.90;;;;;;4939934;28;20925;-93
2023/07/25 06:56:15;;;;;;;5.28;0.30;;;17.20;99.90;;;;;;4936756;28;20424;-93
2023/07/25 06:58:46;;;;;;;3.70;0.30;;;17.10;99.90;;;;;;4937496;28;20409;-93
2023/07/25 07:01:14;;;;;;;3.72;0.20;;;16.90;99.40;;;;;;4935395;28;20448;-93
2023/07/25 07:03:47;;;;;;;2.22;0.20;;;16.50;96.80;;;;;;4938235;28;20436;-93
2023/07/25 07:06:13;;;;;;;5.75;0.25;;;16.40;99.90;;;;;;4937375;28;20420;-93
2023/07/25 07:08:50;;;;;;;6.05;0.47;;;16.50;99.90;;;;;;4938640;28;20424;-94
2023/07/25 07:11:17;;;;;;;4.03;0.30;;;16.30;99.90;;;;;;4938479;28;20495;-94
2023/07/25 07:13:58;;;;;;;2.45;0.20;;;16.40;99.90;;;;;;4937826;28;20416;-94
2023/07/25 07:16:24;;;;;;;3.03;0.20;;;16.90;99.90;;;;;;4937752;28;20404;-93
2023/07/25 07:18:52;;;;;;;3.80;0.20;;;16.80;99.90;;;;;;4936873;28;20415;-93
2023/07/25 07:21:23;;;;;;;2.95;0.30;;;17.20;97.90;;;;;;4937499;28;20424;-95
2023/07/25 07:23:49;;;;;;;3.65;0.20;;;16.90;99.90;;;;;;4936880;28;20455;-94
2023/07/25 07:26:15;;;;;;;2.93;0.20;;;17.90;99.90;;;;;;4938456;28;20412;-93
2023/07/25 07:28:45;;;;;;;2.25;0.20;;;17.20;97.30;;;;;;4937177;28;20435;-94
2023/07/25 07:31:15;;;;;;;2.03;0.20;;;17.20;97.00;;;;;;4936716;28;20415;-93
2023/07/25 07:33:40;;;;;;;3.05;0.40;;;17.50;89.50;;;;;;4937139;28;20576;-93
2023/07/25 07:36:15;;;;;;;3.78;0.20;;;17.60;98.20;;;;;;4936413;28;20413;-94
2023/07/25 07:38:41;;;;;;;3.78;0.20;;;17.40;90.40;;;;;;4936776;28;20499;-93
2023/07/25 07:41:07;;;;;;;2.63;0.30;;;17.50;82.70;;;;;;4936566;28;20436;-93
2023/07/25 07:43:32;;;;;;;3.53;0.28;;;17.70;87.50;;;;;;4937710;28;20935;-93
2023/07/25 07:45:58;;;;;;;2.53;0.20;;;17.50;90.30;;;;;;4936496;28;20541;-93
2023/07/25 07:48:31;;;;;;;4.20;0.30;;;17.50;91.30;;;;;;4938394;28;20479;-93
2023/07/25 07:51:02;;;;;;;2.60;0.20;;;17.50;94.30;;;;;;4935911;28;20412;-93
2023/07/25 07:53:28;;;;;;;4.70;0.30;;;17.60;94.50;;;;;;4936881;28;20404;-93
2023/07/25 07:55:54;;;;;;;3.50;0.20;;;17.80;90.60;;;;;;4936871;28;20431;-92
2023/07/25 07:58:19;;;;;;;3.53;0.30;;;17.90;91.00;;;;;;4935903;28;20927;-92
2023/07/25 08:00:45;;;;;;;3.23;0.20;;;17.90;88.60;;;;;;4937061;28;20460;-92
2023/07/25 08:03:11;;;;;;;4.00;0.47;;;17.60;94.90;;;;;;4936209;28;20807;-92
2023/07/25 08:05:36;;;;;;;5.43;0.23;;;17.70;94.20;;;;;;4936994;28;20421;-92
2023/07/25 08:08:02;;;;;;;4.65;0.30;;;18.00;94.20;;;;;;4935750;28;20947;-93
2023/07/25 08:10:28;;;;;;;3.58;0.20;;;18.10;99.90;;;;;;4936682;28;20434;-92
2023/07/25 08:12:54;;;;;;;2.93;0.30;;;18.30;91.20;;;;;;4934836;28;20487;-92
2023/07/25 08:15:19;;;;;;;4.13;0.30;;;18.50;90.10;;;;;;4935641;28;20416;-92
2023/07/25 08:17:45;;;;;;;4.27;0.30;;;18.80;92.70;;;;;;4935653;28;20428;-92
2023/07/25 08:20:28;;;;;;;3.45;0.20;;;19.00;84.50;;;;;;4936089;28;20431;-94
2023/07/25 08:22:54;;;;;;;3.35;0.30;;;19.00;75.60;;;;;;4936561;28;20471;-94
2023/07/25 08:25:19;;;;;;;2.47;0.30;;;18.50;70.10;;;;;;4936833;28;20416;-92
2023/07/25 08:27:48;;;;;;;3.35;0.30;;;18.70;81.30;;;;;;4936540;28;20404;-93
2023/07/25 08:30:16;;;;;;;3.88;0.40;;;18.70;86.40;;;;;;4936375;28;20463;-94
2023/07/25 08:32:42;;;;;;;2.47;0.20;;;18.90;78.50;;;;;;4938874;28;20446;-91
2023/07/25 08:35:08;;;;;;;4.63;0.30;;;19.00;73.70;;;;;;4936222;28;20408;-93
2023/07/25 08:37:34;;;;;;;1.93;0.20;;;18.50;72.00;;;;;;4935907;28;20460;-93
2023/07/25 08:39:59;;;;;;;3.42;0.35;;;18.90;78.10;;;;;;4936515;28;20411;-94
2023/07/25 08:42:31;;;;;;;3.08;0.20;;;18.50;78.90;;;;;;4935949;28;20457;-95
2023/07/25 08:44:59;;;;;;;4.30;0.30;;;18.70;77.20;;;;;;4948459;28;20414;-93
2023/07/25 08:47:28;;;;;;;4.35;0.30;;;18.50;80.10;;;;;;4954546;28;20442;-90
2023/07/25 08:49:58;;;;;;;3.63;0.20;;;18.20;90.70;;;;;;4939533;28;20474;-95
2023/07/25 08:52:29;;;;;;;3.35;0.30;;;18.10;90.00;;;;;;4928946;28;20421;-94
2023/07/25 08:54:58;;;;;;;3.38;0.30;;;17.70;92.00;;;;;;4926901;28;20441;-93
2023/07/25 08:57:26;;;;;;;4.13;0.70;;;18.20;97.10;;;;;;4927715;28;20416;-88
2023/07/25 08:59:53;;;;;;;2.10;0.35;;;17.40;96.00;;;;;;4918453;29;20424;-92
2023/07/25 09:02:20;;;;;;;4.32;0.40;;;17.40;92.00;;;;;;4916362;29;20437;-93
2023/07/25 09:04:46;;;;;;;4.10;0.30;;;17.50;99.90;;;;;;4925236;28;20420;-95
2023/07/25 09:07:12;;;;;;;4.27;0.40;;;17.60;99.90;;;;;;4922390;29;20485;-94
2023/07/25 09:09:38;;;;;;;4.22;0.43;;;18.70;99.90;;;;;;4916167;28;21125;-94
2023/07/25 09:12:07;;;;;;;4.18;0.35;;;18.30;99.90;;;;;;4930936;28;20950;-93
2023/07/25 09:14:46;;;;;;;4.10;0.40;;;18.60;93.50;;;;;;4935953;28;20503;-93
2023/07/25 09:17:18;;;;;;;3.60;0.45;;;18.70;85.70;;;;;;4938321;28;20988;-95
2023/07/25 09:19:44;;;;;;;4.40;0.60;;;19.00;92.30;;;;;;4936007;28;20480;-94
2023/07/25 09:22:30;;;;;;;3.67;0.40;;;18.90;91.50;;;;;;4935736;28;20428;-94
2023/07/25 09:24:59;;;;;;;5.40;0.30;;;19.50;91.10;;;;;;4938915;28;20424;-95
2023/07/25 09:27:26;;;;;;;4.03;0.30;;;19.30;88.10;;;;;;4936886;28;20427;-95
2023/07/25 09:29:56;;;;;;;2.10;0.20;;;19.80;87.10;;;;;;4936160;28;20416;-95
2023/07/25 09:32:27;;;;;;;4.07;0.30;;;19.40;76.30;;;;;;4919706;28;20855;-92
2023/07/25 09:35:00;;;;;;;3.50;0.30;;;19.60;69.00;;;;;;4937747;28;20824;-93
2023/07/25 09:37:28;;;;;;;3.22;0.38;;;19.60;75.00;;;;;;4938018;28;21062;-94
2023/07/25 09:39:54;;;;;;;3.00;0.25;;;19.60;69.40;;;;;;4937793;28;20417;-94
2023/07/25 09:42:27;;;;;;;3.42;0.20;;;19.80;67.80;;;;;;4935355;28;20439;-91
2023/07/25 09:44:53;;;;;;;3.00;0.30;;;19.40;65.50;;;;;;4935596;28;20439;-94
2023/07/25 09:47:28;;;;;;;3.50;0.35;;;19.20;65.90;;;;;;4935211;28;20413;-93
2023/07/25 09:49:56;;;;;;;2.53;0.40;;;19.30;74.40;;;;;;4934450;28;20416;-90
2023/07/25 09:52:37;;;;;;;4.53;0.30;;;19.40;70.30;;;;;;4933961;28;20408;-95
2023/07/25 09:55:03;;;;;;;4.80;0.38;;;19.70;76.80;;;;;;4916789;29;20818;-96
2023/07/25 09:57:29;;;;;;;2.87;0.30;;;20.10;68.60;;;;;;4919430;28;20418;-95
2023/07/25 09:59:55;;;;;;;3.83;0.30;;;20.50;76.30;;;;;;4935444;28;20999;-93
2023/07/25 10:02:25;;;;;;;5.82;0.40;;;21.20;74.70;;;;;;4935981;28;20432;-94
2023/07/25 10:04:52;;;;;;;2.22;0.20;;;21.30;76.00;;;;;;4934828;28;20399;-93
2023/07/25 10:07:19;;;;;;;2.10;0.40;;;21.30;57.00;;;;;;4935007;28;20439;-92
2023/07/25 10:09:46;;;;;;;4.07;0.28;;;20.50;58.30;;;;;;4936468;28;20412;-96
2023/07/25 10:12:12;;;;;;;4.00;0.28;;;20.40;59.40;;;;;;4937167;28;20421;-95
2023/07/25 10:14:38;;;;;;;3.57;0.30;;;20.50;72.20;;;;;;4939133;28;20431;-91
2023/07/25 10:17:05;;;;;;;3.70;0.30;;;20.90;72.50;;;;;;4970797;28;20975;-94
2023/07/25 10:19:51;;;;;;;4.40;0.20;;;21.10;59.20;;;;;;4939636;28;20818;-90
2023/07/25 10:22:58;;;;;;;3.38;0.35;;;21.20;61.30;;;;;;4937520;28;20432;-94
2023/07/25 10:25:30;;;;;;;3.88;0.30;;;21.30;63.30;;;;;;4953566;28;20498;-94
2023/07/25 10:27:58;;;;;;;2.60;0.30;;;20.90;60.00;;;;;;4938872;28;20420;-94
2023/07/25 10:30:32;;;;;;;2.40;0.30;;;20.60;61.30;;;;;;4937921;28;20455;-96
2023/07/25 10:33:11;;;;;;;4.87;0.30;;;20.60;63.80;;;;;;4940714;28;20420;-95
2023/07/25 10:35:52;;;;;;;3.33;0.30;;;20.60;64.70;;;;;;4939399;28;20422;-93
2023/07/25 10:38:33;;;;;;;3.80;0.20;;;21.10;65.40;;;;;;4937372;28;20459;-93
2023/07/25 10:41:13;;;;;;;2.60;0.20;;;21.70;61.00;;;;;;4940323;28;20412;-91
2023/07/25 10:43:48;;;;;;;2.25;0.20;;;22.00;58.20;;;;;;4938290;28;20489;-92
2023/07/25 10:46:20;;;;;;;2.67;0.10;;;22.00;54.30;;;;;;4954270;28;20826;-94
2023/07/25 10:48:52;;;;;;;1.77;0.20;;;21.90;55.50;;;;;;4934547;28;20509;-91
2023/07/25 10:51:19;;;;;;;3.33;0.20;;;22.00;56.10;;;;;;4932877;28;20559;-94
2023/07/25 10:54:18;;;;;;;3.47;0.20;;;21.40;57.50;;;;;;4921371;29;20421;-94
2023/07/25 10:57:06;;;;;;;2.28;0.20;;;21.30;57.00;;;;;;4895612;28;20424;-95
2023/07/25 11:03:47;;;;;;;2.58;0.20;;;21.00;60.30;;;;;;4977621;28;20445;-95
2023/07/25 11:06:12;;;;;;;3.15;0.20;;;20.80;57.70;;;;;;4904541;29;20437;-94
2023/07/25 11:08:42;;;;;;;1.80;0.20;;;20.60;59.80;;;;;;4905227;29;20419;-93
2023/07/25 11:11:12;;;;;;;3.53;0.20;;;20.60;60.10;;;;;;4929827;28;20929;-94
2023/07/25 11:13:42;;;;;;;3.60;0.20;;;20.60;58.90;;;;;;4963831;28;20417;-94
2023/07/25 11:16:29;;;;;;;2.60;0.30;;;20.50;63.70;;;;;;4961624;28;20427;-94
2023/07/25 11:18:59;;;;;;;2.45;0.20;;;20.60;62.90;;;;;;4963090;28;20414;-95
2023/07/25 11:21:27;;;;;;;2.17;0.20;;;20.00;64.50;;;;;;4960769;28;20430;-93
2023/07/25 11:24:05;;;;;;;3.08;0.22;;;20.10;66.20;;;;;;4964422;28;20447;-92
2023/07/25 11:26:31;;;;;;;2.90;0.20;;;20.00;64.00;;;;;;4958876;28;20491;-96
2023/07/25 11:29:02;;;;;;;1.95;0.20;;;20.20;65.10;;;;;;4961752;28;20842;-94
2023/07/25 11:31:35;;;;;;;2.53;0.15;;;20.20;61.10;;;;;;4964252;28;20399;-95
2023/07/25 11:34:10;;;;;;;2.03;0.20;;;19.40;61.80;;;;;;4956372;28;20408;-94
2023/07/25 11:36:45;;;;;;;1.88;0.20;;;19.60;68.30;;;;;;4956831;28;20441;-96
2023/07/25 11:39:18;;;;;;;2.70;0.13;;;19.60;63.20;;;;;;4940859;28;20420;-95
2023/07/25 11:41:45;;;;;;;3.35;0.30;;;19.70;66.30;;;;;;4958576;28;20765;-94
2023/07/25 11:44:16;;;;;;;1.23;0.15;;;20.10;69.20;;;;;;4943571;28;20884;-94
2023/07/25 11:47:05;;;;;;;1.67;0.10;;;21.10;62.10;;;;;;4941930;29;20564;-95
2023/07/25 11:49:34;;;;;;;0.73;0.10;;;21.60;62.60;;;;;;4930192;29;20425;-94
2023/07/25 11:52:06;;;;;;;1.57;0.20;;;21.80;54.50;;;;;;4943130;29;20425;-94
2023/07/25 11:54:33;;;;;;;1.15;0.10;;;21.60;54.40;;;;;;4957079;29;20449;-94
2023/07/25 11:56:59;;;;;;;2.15;0.20;;;21.20;55.20;;;;;;4939355;29;20410;-94
2023/07/25 12:00:12;;;;;;;2.50;0.30;;;20.80;58.10;;;;;;4940310;29;20409;-94
2023/07/25 12:02:39;;;;;;;2.92;0.35;;;20.60;58.50;;;;;;4940051;29;20446;-93
2023/07/25 12:05:29;;;;;;;5.47;1.15;;;20.20;61.30;;;;;;4939443;29;20803;-95
2023/07/25 12:08:03;;;;;;;4.65;0.40;;;19.90;71.00;;;;;;4934074;29;20414;-94
2023/07/25 12:10:33;;;;;;;3.58;0.30;;;19.70;73.80;;;;;;4934960;29;20513;-93
2023/07/25 12:13:09;;;;;;;3.08;0.35;;;19.60;86.50;;;;;;4936801;29;20485;-94
2023/07/25 12:15:46;;;;;;;4.05;0.50;;;19.60;84.00;;;;;;4935886;29;20417;-93
2023/07/25 12:18:31;;;;;;;3.27;0.30;;;19.70;83.90;;;;;;4920320;29;20432;-95
2023/07/25 12:21:02;;;;;;;3.20;0.40;;;19.90;83.40;;;;;;4932250;29;20422;-93
2023/07/25 12:23:30;;;;;;;4.63;0.40;;;20.00;77.90;;;;;;4934443;29;20469;-94
2023/07/25 12:26:00;;;;;;;4.13;0.50;;;20.10;78.30;;;;;;4940937;29;20418;-94
2023/07/25 12:28:46;;;;;;;1.90;0.20;;;20.50;78.00;;;;;;4936141;29;20509;-94
2023/07/25 12:31:21;;;;;;;6.95;1.38;;;20.60;66.50;;;;;;4934803;28;20534;-94
2023/07/25 12:33:50;;;;;;;2.67;0.20;;;20.70;66.60;;;;;;4938526;29;20429;-95
2023/07/25 12:36:27;;;;;;;1.30;0.30;;;20.50;60.20;;;;;;4936845;29;20425;-95
2023/07/25 12:38:53;;;;;;;2.05;0.20;;;20.30;62.10;;;;;;4935749;29;20421;-93
2023/07/25 12:41:23;;;;;;;3.33;0.20;;;20.60;61.60;;;;;;4936888;29;20421;-95
2023/07/25 12:44:00;;;;;;;1.70;0.20;;;20.30;64.60;;;;;;4938181;29;20420;-95
2023/07/25 12:46:28;;;;;;;26.88;8.10;;;20.50;65.50;;;;;;4936183;29;20414;-93
2023/07/25 12:48:56;;;;;;;1.37;0.10;;;20.50;64.80;;;;;;4934960;29;20477;-94
2023/07/25 12:51:25;;;;;;;3.50;0.57;;;20.60;61.10;;;;;;4937118;29;20430;-94
2023/07/25 12:53:53;;;;;;;0.93;0.20;;;20.60;58.10;;;;;;4951227;29;20410;-94
2023/07/25 12:56:19;;;;;;;2.78;0.82;;;20.60;61.30;;;;;;4933207;29;20449;-93
2023/07/25 12:58:44;;;;;;;1.10;0.10;;;20.60;59.40;;;;;;4935409;29;20402;-93
2023/07/25 13:01:10;;;;;;;1.30;0.10;;;20.60;61.10;;;;;;4933091;29;20420;-92